Time;durP1;ratioP1;P1;durP2;ratioP2;P2;SDS_P1;SDS_P2;PMS_P1;PMS_P2;Temp;Humidity;BMP_temperature;BMP_pressure;BME280_temperature;BME280_humidity;BME280_pressure;Samples;Min_cycle;Max_cycle;Signal;HPM_P1;HPM_P2
2023/05/04 03:59:32;;;;;;;5.13;4.75;;;5.40;99.90;;;;;;6210396;22;20503;-70
2023/05/04 04:02:00;;;;;;;3.90;3.70;;;5.30;99.90;;;;;;6217056;23;20196;-69
2023/05/04 04:04:27;;;;;;;4.93;4.63;;;5.40;99.90;;;;;;6216997;23;20562;-69
2023/05/04 04:06:53;;;;;;;4.20;3.90;;;5.40;99.90;;;;;;6216598;23;20177;-69
2023/05/04 04:09:20;;;;;;;4.72;4.43;;;5.40;99.90;;;;;;6216779;23;20204;-69
2023/05/04 04:11:47;;;;;;;4.75;4.45;;;5.40;99.90;;;;;;6216938;23;20223;-69
2023/05/04 04:14:13;;;;;;;4.50;4.20;;;5.40;99.90;;;;;;6216732;22;20200;-73
2023/05/04 04:16:41;;;;;;;5.30;4.90;;;5.40;99.90;;;;;;6216583;23;20177;-73
2023/05/04 04:19:08;;;;;;;5.10;4.80;;;5.50;99.90;;;;;;6216644;23;20191;-72
2023/05/04 04:21:35;;;;;;;4.53;4.22;;;5.50;99.90;;;;;;6216571;23;20173;-75
2023/05/04 04:24:02;;;;;;;4.47;4.18;;;5.60;99.90;;;;;;6216546;23;20196;-71
2023/05/04 04:26:29;;;;;;;4.57;4.28;;;5.60;99.90;;;;;;6216704;23;20172;-72
2023/05/04 04:28:56;;;;;;;4.55;4.25;;;5.70;99.90;;;;;;6216367;23;20193;-72
2023/05/04 04:31:23;;;;;;;5.07;4.78;;;5.70;99.90;;;;;;6216550;23;20219;-73
2023/05/04 04:33:51;;;;;;;5.13;4.75;;;5.80;99.90;;;;;;6216362;23;20173;-72
2023/05/04 04:36:18;;;;;;;4.68;4.38;;;5.90;99.90;;;;;;6216151;23;20626;-71
2023/05/04 04:38:45;;;;;;;4.82;4.53;;;5.90;99.90;;;;;;6216373;23;20169;-71
2023/05/04 04:41:12;;;;;;;4.70;4.40;;;6.00;99.90;;;;;;6216418;23;20185;-72
2023/05/04 04:43:38;;;;;;;4.18;3.97;;;6.10;99.90;;;;;;6216486;23;20177;-72
2023/05/04 04:46:05;;;;;;;5.85;5.35;;;6.20;99.90;;;;;;6216230;23;20280;-72
2023/05/04 04:48:32;;;;;;;6.47;5.90;;;6.30;99.90;;;;;;6216210;23;20204;-72
2023/05/04 04:51:00;;;;;;;5.90;5.50;;;6.40;99.90;;;;;;6216374;23;20180;-70
2023/05/04 04:53:27;;;;;;;7.60;7.00;;;6.60;99.90;;;;;;6216248;23;20629;-71
2023/05/04 04:55:53;;;;;;;8.07;7.38;;;6.80;99.90;;;;;;6216184;23;20204;-71
2023/05/04 04:58:20;;;;;;;7.55;6.85;;;7.20;99.90;;;;;;6216343;23;20177;-71
2023/05/04 05:00:47;;;;;;;7.40;6.78;;;7.90;99.90;;;;;;6216162;23;20185;-68
2023/05/04 05:03:14;;;;;;;8.70;7.80;;;8.80;99.90;;;;;;6216040;23;20187;-68
2023/05/04 05:05:40;;;;;;;9.20;8.40;;;9.70;99.90;;;;;;6215930;23;20275;-68
2023/05/04 05:08:08;;;;;;;9.13;8.32;;;10.70;99.90;;;;;;6216025;23;20189;-68
2023/05/04 05:10:35;;;;;;;6.55;6.03;;;11.60;99.90;;;;;;6216267;23;20211;-68
2023/05/04 05:13:02;;;;;;;6.82;6.22;;;12.40;99.90;;;;;;6215908;23;20549;-68
2023/05/04 05:15:28;;;;;;;7.63;6.93;;;13.00;99.90;;;;;;6216285;23;20201;-69
2023/05/04 05:17:55;;;;;;;7.50;6.90;;;13.60;99.90;;;;;;6216609;23;20184;-68
2023/05/04 05:20:22;;;;;;;6.88;6.28;;;14.00;99.90;;;;;;6217520;23;20183;-68
2023/05/04 05:22:50;;;;;;;6.85;6.25;;;14.20;99.90;;;;;;6217054;23;20499;-69
2023/05/04 05:25:18;;;;;;;4.97;4.57;;;14.50;99.90;;;;;;6216105;23;20207;-70
2023/05/04 05:27:45;;;;;;;5.90;5.40;;;14.80;99.90;;;;;;6216321;23;20184;-70
2023/05/04 05:30:12;;;;;;;5.13;4.72;;;15.00;99.90;;;;;;6216290;23;20196;-70
2023/05/04 05:32:39;;;;;;;5.55;5.10;;;15.20;99.90;;;;;;6216154;23;20179;-70
2023/05/04 05:35:08;;;;;;;4.70;4.40;;;15.60;99.90;;;;;;6216150;23;20201;-70
2023/05/04 05:37:34;;;;;;;5.32;4.90;;;16.10;99.90;;;;;;6216102;23;20230;-70
2023/05/04 05:40:01;;;;;;;5.60;5.10;;;16.40;96.10;;;;;;6216207;23;20169;-70
2023/05/04 05:42:30;;;;;;;4.95;4.60;;;16.50;93.40;;;;;;6216005;23;20180;-70
2023/05/04 05:44:57;;;;;;;5.75;5.30;;;16.50;86.30;;;;;;6215867;23;20196;-70
2023/05/04 05:47:24;;;;;;;7.22;5.53;;;16.50;84.50;;;;;;6216077;23;20238;-70
2023/05/04 05:49:50;;;;;;;5.57;5.13;;;16.50;86.90;;;;;;6218917;23;20274;-70
2023/05/04 05:52:17;;;;;;;6.28;5.22;;;16.70;90.70;;;;;;6219625;23;20176;-70
2023/05/04 05:54:44;;;;;;;4.40;4.10;;;17.00;84.00;;;;;;6218853;23;20199;-70
2023/05/04 05:57:10;;;;;;;4.63;4.32;;;17.50;81.90;;;;;;6218956;23;20629;-70
2023/05/04 05:59:40;;;;;;;5.25;4.78;;;17.90;75.30;;;;;;6219317;23;20569;-70
2023/05/04 06:02:07;;;;;;;3.72;3.53;;;18.30;66.70;;;;;;6218942;23;20613;-70
2023/05/04 06:04:34;;;;;;;4.15;3.90;;;18.80;68.90;;;;;;6219636;23;20232;-70
2023/05/04 06:07:00;;;;;;;4.43;4.13;;;19.50;59.10;;;;;;6219221;23;20238;-70
2023/05/04 06:09:27;;;;;;;3.67;3.38;;;19.80;57.80;;;;;;6219042;23;20195;-70
2023/05/04 06:11:54;;;;;;;4.32;4.03;;;20.20;54.70;;;;;;6219192;23;20230;-70
2023/05/04 06:14:21;;;;;;;4.53;4.18;;;20.50;52.90;;;;;;6219167;23;20287;-70
2023/05/04 06:16:48;;;;;;;4.40;4.05;;;20.80;51.00;;;;;;6219201;23;20474;-70
2023/05/04 06:19:15;;;;;;;4.72;4.32;;;21.00;50.00;;;;;;6219264;23;20187;-70
2023/05/04 06:21:42;;;;;;;4.00;3.70;;;21.20;50.70;;;;;;6219858;23;20222;-70
2023/05/04 06:24:09;;;;;;;3.33;3.13;;;21.50;49.30;;;;;;6218704;23;20743;-70
2023/05/04 06:26:36;;;;;;;4.32;3.58;;;22.00;50.50;;;;;;6219104;23;20567;-70
2023/05/04 06:29:02;;;;;;;2.70;2.60;;;22.40;49.50;;;;;;6218657;23;20580;-70
2023/05/04 06:31:29;;;;;;;2.80;2.67;;;22.90;49.70;;;;;;6219094;23;20187;-70
2023/05/04 06:33:57;;;;;;;2.78;2.58;;;23.50;49.20;;;;;;6219056;23;20177;-70
2023/05/04 06:36:24;;;;;;;5.22;4.82;;;24.10;46.30;;;;;;6218832;23;20669;-70
2023/05/04 06:38:51;;;;;;;3.88;3.60;;;24.30;45.70;;;;;;6219203;23;20223;-70
2023/05/04 06:41:18;;;;;;;3.00;2.90;;;24.30;44.50;;;;;;6219110;23;20183;-70
2023/05/04 06:43:45;;;;;;;4.00;3.80;;;24.40;44.30;;;;;;6218757;23;20669;-70
2023/05/04 06:46:11;;;;;;;2.92;2.72;;;24.30;42.70;;;;;;6219053;23;20207;-70
2023/05/04 06:48:38;;;;;;;2.63;2.53;;;24.60;41.10;;;;;;6218488;23;20645;-70
2023/05/04 06:51:06;;;;;;;2.67;2.58;;;25.00;42.40;;;;;;6218981;23;20545;-70
2023/05/04 06:53:33;;;;;;;3.92;3.72;;;25.70;40.10;;;;;;6218987;23;20183;-70
2023/05/04 06:55:59;;;;;;;2.85;2.67;;;25.90;39.30;;;;;;6218844;23;20204;-70
2023/05/04 06:58:26;;;;;;;2.33;2.22;;;26.20;38.60;;;;;;6218958;23;20215;-70
2023/05/04 07:00:53;;;;;;;3.10;2.90;;;26.70;37.80;;;;;;6217296;23;20183;-70
2023/05/04 07:03:20;;;;;;;3.22;2.92;;;26.80;37.70;;;;;;6217476;23;20195;-70
2023/05/04 07:05:47;;;;;;;2.90;2.70;;;27.20;36.70;;;;;;6217264;23;20568;-70
2023/05/04 07:08:16;;;;;;;3.75;3.42;;;27.30;36.10;;;;;;6217268;23;20255;-70
2023/05/04 07:10:43;;;;;;;2.40;2.30;;;27.00;37.70;;;;;;6217222;23;20218;-70
2023/05/04 07:13:10;;;;;;;2.80;2.70;;;27.20;37.10;;;;;;6216929;23;20630;-70
2023/05/04 07:15:36;;;;;;;3.53;3.22;;;27.40;36.30;;;;;;6216662;23;20254;-70
2023/05/04 07:18:03;;;;;;;3.60;3.30;;;27.40;36.30;;;;;;6217271;23;20227;-70
2023/05/04 07:20:30;;;;;;;3.08;2.85;;;27.40;36.50;;;;;;6217232;23;20172;-70
2023/05/04 07:22:57;;;;;;;2.67;2.58;;;27.50;38.30;;;;;;6217204;23;20180;-70
2023/05/04 07:25:26;;;;;;;2.88;2.78;;;28.10;36.40;;;;;;6217080;23;20192;-71
2023/05/04 07:27:53;;;;;;;3.03;2.35;;;28.30;36.50;;;;;;6217041;23;20246;-70
2023/05/04 07:30:20;;;;;;;3.05;2.80;;;28.40;36.80;;;;;;6217272;23;20274;-70
2023/05/04 07:32:47;;;;;;;5.25;2.80;;;28.30;36.10;;;;;;6217026;23;20176;-70
2023/05/04 07:35:14;;;;;;;2.50;2.40;;;28.50;36.40;;;;;;6217096;23;20192;-70
2023/05/04 07:37:40;;;;;;;3.40;3.20;;;28.70;36.60;;;;;;6217026;23;20172;-71
2023/05/04 07:40:09;;;;;;;2.28;2.20;;;28.60;36.80;;;;;;6217102;23;20181;-71
2023/05/04 07:42:38;;;;;;;2.20;2.10;;;28.90;36.20;;;;;;6216945;23;20254;-71
2023/05/04 07:45:07;;;;;;;3.55;2.80;;;29.50;36.80;;;;;;6217256;23;20196;-71
2023/05/04 07:47:33;;;;;;;2.53;2.42;;;29.80;35.40;;;;;;6216964;23;20226;-70
2023/05/04 07:50:00;;;;;;;2.05;2.03;;;29.60;36.70;;;;;;6216873;23;20200;-70
2023/05/04 07:52:27;;;;;;;1.58;1.58;;;29.70;35.10;;;;;;6216900;23;20176;-70
2023/05/04 07:54:54;;;;;;;2.83;2.63;;;30.00;36.10;;;;;;6216398;23;20687;-70
2023/05/04 07:57:21;;;;;;;4.53;2.85;;;29.70;36.70;;;;;;6216868;23;20176;-70
2023/05/04 07:59:53;;;;;;;2.78;2.58;;;29.40;35.60;;;;;;6216877;23;20172;-70
2023/05/04 08:02:20;;;;;;;4.05;3.65;;;28.10;37.20;;;;;;6216910;23;20248;-70
2023/05/04 08:04:47;;;;;;;2.92;2.67;;;26.50;39.10;;;;;;6216736;23;20246;-70
2023/05/04 08:07:15;;;;;;;3.28;3.08;;;24.70;42.70;;;;;;6216802;23;20176;-70
2023/05/04 08:09:42;;;;;;;3.78;3.47;;;23.30;44.30;;;;;;6216647;23;20291;-70
2023/05/04 08:12:09;;;;;;;3.88;3.67;;;22.20;46.90;;;;;;6216468;23;20179;-70
2023/05/04 08:14:37;;;;;;;3.28;2.72;;;21.40;49.40;;;;;;6216315;23;20544;-70
2023/05/04 08:17:05;;;;;;;3.95;3.55;;;20.90;51.80;;;;;;6216280;23;20634;-70
2023/05/04 08:19:31;;;;;;;3.28;3.10;;;20.40;54.20;;;;;;6216612;23;20172;-70
2023/05/04 08:21:58;;;;;;;2.60;2.50;;;20.00;57.90;;;;;;6216590;23;20172;-70
2023/05/04 08:24:25;;;;;;;2.90;2.80;;;19.80;66.20;;;;;;6216497;23;20196;-70
2023/05/04 08:26:51;;;;;;;3.17;3.08;;;19.60;64.90;;;;;;6216160;23;20664;-70
2023/05/04 08:29:18;;;;;;;2.83;2.72;;;19.30;67.50;;;;;;6216075;23;20726;-70
2023/05/04 08:31:45;;;;;;;3.70;3.40;;;18.90;73.80;;;;;;6216524;23;20172;-71
2023/05/04 08:34:13;;;;;;;3.22;3.03;;;18.60;79.80;;;;;;6216424;23;20212;-70
2023/05/04 08:36:40;;;;;;;3.53;3.33;;;18.30;85.30;;;;;;6216545;23;20173;-70
2023/05/04 08:39:06;;;;;;;2.50;2.38;;;18.10;94.00;;;;;;6216335;23;20180;-70
2023/05/04 08:41:34;;;;;;;2.67;2.58;;;18.20;87.20;;;;;;6216542;23;20234;-70
2023/05/04 08:44:00;;;;;;;2.67;2.47;;;18.10;85.80;;;;;;6216367;23;20196;-70
2023/05/04 08:46:30;;;;;;;2.83;2.63;;;18.20;81.40;;;;;;6216335;23;20550;-70
2023/05/04 08:48:57;;;;;;;2.40;2.28;;;18.10;79.50;;;;;;6216266;23;20259;-70
2023/05/04 08:51:26;;;;;;;2.67;2.53;;;18.10;80.90;;;;;;6216366;23;20176;-70
2023/05/04 08:53:53;;;;;;;2.97;2.88;;;18.10;80.60;;;;;;6216234;23;20179;-70
2023/05/04 08:56:22;;;;;;;3.40;2.25;;;18.10;79.60;;;;;;6216332;23;20544;-70
2023/05/04 08:58:50;;;;;;;3.42;2.97;;;18.00;78.60;;;;;;6216459;23;20510;-70
2023/05/04 09:01:18;;;;;;;2.65;2.55;;;17.90;77.30;;;;;;6216359;23;20176;-70
2023/05/04 09:03:47;;;;;;;3.90;2.78;;;17.80;81.90;;;;;;6216466;23;20179;-70
2023/05/04 09:06:14;;;;;;;2.80;2.70;;;17.60;79.90;;;;;;6216494;23;20176;-69
2023/05/04 09:08:42;;;;;;;2.80;2.70;;;17.50;85.20;;;;;;6216249;23;20176;-69
2023/05/04 09:11:09;;;;;;;2.63;2.53;;;17.50;86.30;;;;;;6216181;23;20199;-70
2023/05/04 09:13:36;;;;;;;2.35;2.25;;;17.40;85.10;;;;;;6215824;23;20642;-70
2023/05/04 09:16:03;;;;;;;3.20;3.00;;;17.50;92.60;;;;;;6216445;23;20204;-69
2023/05/04 09:18:38;;;;;;;3.22;3.03;;;17.60;90.50;;;;;;6216215;23;20176;-69
2023/05/04 09:21:05;;;;;;;3.00;2.80;;;17.70;95.40;;;;;;6216235;23;20199;-69
2023/05/04 09:23:32;;;;;;;3.88;3.00;;;17.80;91.60;;;;;;6215385;23;20601;-70
2023/05/04 09:26:00;;;;;;;3.75;3.45;;;17.80;88.40;;;;;;6216153;23;20303;-70
2023/05/04 09:28:37;;;;;;;3.95;3.58;;;17.90;86.60;;;;;;6216139;23;20521;-70
2023/05/04 09:31:05;;;;;;;2.30;2.20;;;17.90;84.30;;;;;;6216122;23;20188;-70
2023/05/04 09:33:32;;;;;;;2.22;2.13;;;18.00;83.20;;;;;;6215720;23;20629;-70
2023/05/04 09:36:11;;;;;;;3.53;3.25;;;18.00;80.90;;;;;;6216057;23;20192;-70
2023/05/04 09:38:39;;;;;;;2.97;2.78;;;18.00;82.50;;;;;;6216303;23;20239;-70
2023/05/04 09:41:07;;;;;;;4.78;4.40;;;18.00;80.50;;;;;;6216807;23;20172;-70
2023/05/04 09:43:38;;;;;;;3.65;3.45;;;18.00;87.80;;;;;;6216191;23;20176;-69
2023/05/04 09:46:05;;;;;;;2.72;2.63;;;18.00;83.90;;;;;;6216163;23;20192;-70
2023/05/04 09:48:32;;;;;;;3.10;2.90;;;18.10;86.40;;;;;;6215798;23;20176;-70
2023/05/04 09:51:01;;;;;;;4.85;4.45;;;18.20;85.30;;;;;;6215929;23;20196;-70
2023/05/04 09:53:29;;;;;;;5.05;4.68;;;18.10;87.60;;;;;;6216186;23;20183;-71
2023/05/04 09:56:15;;;;;;;3.95;3.75;;;18.10;91.90;;;;;;6216065;23;20199;-71
2023/05/04 09:58:43;;;;;;;4.18;3.97;;;18.10;91.10;;;;;;6214915;23;20176;-71
2023/05/04 10:01:10;;;;;;;3.00;2.83;;;18.10;90.70;;;;;;6215587;23;20543;-71
2023/05/04 10:03:38;;;;;;;4.57;4.18;;;18.20;90.20;;;;;;6216120;23;20179;-71
2023/05/04 10:06:07;;;;;;;3.55;3.35;;;18.20;87.90;;;;;;6216121;23;20203;-70
2023/05/04 10:08:34;;;;;;;2.92;2.80;;;18.10;83.90;;;;;;6216193;23;20259;-70
2023/05/04 10:11:01;;;;;;;3.55;3.35;;;18.20;89.90;;;;;;6216016;23;20246;-70
2023/05/04 10:13:29;;;;;;;3.97;3.65;;;18.20;81.30;;;;;;6216023;23;20195;-70
2023/05/04 10:16:15;;;;;;;2.90;2.70;;;18.20;77.60;;;;;;6216387;22;20235;-70
2023/05/04 10:18:56;;;;;;;2.80;2.60;;;18.30;84.50;;;;;;6216107;23;20156;-70
2023/05/04 10:21:30;;;;;;;3.72;3.53;;;18.40;83.20;;;;;;6216352;23;20157;-71
2023/05/04 10:24:19;;;;;;;3.05;2.88;;;18.50;75.30;;;;;;6216042;23;20159;-71
2023/05/04 10:27:02;;;;;;;2.80;2.70;;;18.50;74.80;;;;;;6216302;23;20195;-71
2023/05/04 10:29:33;;;;;;;2.13;2.03;;;18.70;74.30;;;;;;6215740;23;20593;-71
2023/05/04 10:32:00;;;;;;;1.75;1.75;;;18.70;75.00;;;;;;6216895;23;20183;-71
2023/05/04 10:34:29;;;;;;;2.13;2.03;;;18.80;78.20;;;;;;6221672;23;20198;-71
2023/05/04 10:36:57;;;;;;;2.70;2.60;;;18.90;76.10;;;;;;6223415;23;20176;-71
2023/05/04 10:39:25;;;;;;;2.55;1.95;;;19.00;72.60;;;;;;6220579;23;20175;-71
2023/05/04 10:42:02;;;;;;;2.10;2.10;;;19.00;68.20;;;;;;6217768;23;20176;-71
2023/05/04 10:44:31;;;;;;;3.17;3.08;;;19.00;68.20;;;;;;6217886;23;20504;-71
2023/05/04 10:47:02;;;;;;;2.40;2.30;;;18.90;67.60;;;;;;6217839;23;20242;-71
2023/05/04 10:49:29;;;;;;;2.60;2.50;;;18.90;69.50;;;;;;6218167;23;20167;-71
2023/05/04 10:52:10;;;;;;;3.83;3.53;;;18.90;70.30;;;;;;6218106;23;20243;-71
2023/05/04 10:54:37;;;;;;;2.97;2.88;;;18.80;68.10;;;;;;6217648;23;20191;-71
2023/05/04 10:57:05;;;;;;;3.22;2.95;;;18.70;69.90;;;;;;6217987;23;20222;-72
2023/05/04 10:59:34;;;;;;;3.25;3.03;;;18.80;70.20;;;;;;6217878;23;20179;-71
2023/05/04 11:02:02;;;;;;;3.53;3.33;;;18.80;70.20;;;;;;6217449;23;20538;-71
2023/05/04 11:04:29;;;;;;;3.17;2.97;;;18.70;67.80;;;;;;6217796;23;20317;-72
2023/05/04 11:06:57;;;;;;;3.00;2.90;;;18.50;65.00;;;;;;6217625;23;20234;-71
2023/05/04 11:09:25;;;;;;;2.55;2.35;;;18.40;64.30;;;;;;6217589;23;20172;-71
2023/05/04 11:11:52;;;;;;;3.15;2.95;;;18.40;68.10;;;;;;6217479;23;20203;-71
2023/05/04 11:14:27;;;;;;;2.97;2.78;;;18.50;67.00;;;;;;6217095;23;20259;-71
2023/05/04 11:17:06;;;;;;;3.28;3.05;;;18.50;69.40;;;;;;6216999;23;20656;-71
2023/05/04 11:19:32;;;;;;;2.70;2.50;;;18.60;73.30;;;;;;6217461;23;20191;-71
2023/05/04 11:22:00;;;;;;;2.35;2.25;;;18.70;68.40;;;;;;6217246;23;20179;-71
2023/05/04 11:24:36;;;;;;;3.83;3.53;;;18.90;68.30;;;;;;6217402;23;20193;-72
2023/05/04 11:27:02;;;;;;;3.10;2.95;;;19.00;67.30;;;;;;6217370;23;20163;-72
2023/05/04 11:29:29;;;;;;;3.60;3.35;;;19.10;66.30;;;;;;6217321;23;20222;-72
2023/05/04 11:31:57;;;;;;;3.58;3.38;;;19.20;65.40;;;;;;6217094;23;20199;-72
2023/05/04 11:34:24;;;;;;;3.00;2.78;;;19.10;64.60;;;;;;6217223;23;20200;-71
2023/05/04 11:36:51;;;;;;;2.60;2.50;;;19.20;67.00;;;;;;6216850;23;20695;-71
2023/05/04 11:39:18;;;;;;;3.20;3.00;;;19.20;65.80;;;;;;6216828;23;20650;-71
2023/05/04 11:41:45;;;;;;;2.20;2.10;;;19.10;62.20;;;;;;6217097;23;20177;-72
2023/05/04 11:44:12;;;;;;;2.28;2.17;;;19.10;63.70;;;;;;6217048;23;20173;-72
2023/05/04 11:46:39;;;;;;;3.00;2.80;;;19.20;61.50;;;;;;6216708;23;20172;-72
2023/05/04 11:49:07;;;;;;;1.80;1.70;;;19.20;58.50;;;;;;6217178;23;20538;-71
2023/05/04 11:51:34;;;;;;;2.13;2.10;;;19.20;60.70;;;;;;6216838;23;20731;-72
2023/05/04 11:54:01;;;;;;;2.20;2.10;;;19.30;57.60;;;;;;6217090;23;20172;-72
2023/05/04 11:56:28;;;;;;;2.60;2.42;;;19.30;56.60;;;;;;6217531;23;20184;-72
2023/05/04 11:58:54;;;;;;;3.38;3.10;;;19.20;56.00;;;;;;6216998;23;20156;-72
2023/05/04 12:01:21;;;;;;;3.70;2.28;;;19.20;55.50;;;;;;6216931;23;20168;-71
2023/05/04 12:03:48;;;;;;;1.98;1.88;;;19.10;54.80;;;;;;6216755;23;20499;-72
2023/05/04 12:06:16;;;;;;;1.73;1.63;;;19.10;53.70;;;;;;6216862;23;20200;-72
2023/05/04 12:08:43;;;;;;;1.85;1.85;;;19.10;53.30;;;;;;6217172;23;20176;-72
2023/05/04 12:11:13;;;;;;;1.75;1.70;;;19.10;52.90;;;;;;6216727;23;20196;-72
2023/05/04 12:13:41;;;;;;;1.20;1.20;;;19.10;53.40;;;;;;6216694;23;20164;-72
2023/05/04 12:16:12;;;;;;;1.90;1.80;;;19.20;53.00;;;;;;6216500;23;20756;-72
2023/05/04 12:18:39;;;;;;;1.20;1.20;;;19.20;51.40;;;;;;6230785;23;20160;-71
2023/05/04 12:21:13;;;;;;;1.17;1.17;;;19.30;51.20;;;;;;6232797;23;20199;-71
2023/05/04 12:23:42;;;;;;;1.38;1.38;;;19.30;51.90;;;;;;6222281;23;20544;-71
2023/05/04 12:26:09;;;;;;;1.08;1.08;;;19.40;51.70;;;;;;6217285;23;20196;-72
2023/05/04 12:28:37;;;;;;;1.20;1.20;;;19.40;51.00;;;;;;6216222;23;20692;-71
2023/05/04 12:31:04;;;;;;;1.88;1.75;;;19.40;51.30;;;;;;6216416;23;20192;-71
2023/05/04 12:33:31;;;;;;;1.88;1.70;;;19.50;51.70;;;;;;6216634;23;20203;-72
2023/05/04 12:35:59;;;;;;;2.42;1.33;;;19.60;50.50;;;;;;6216089;23;20681;-71
2023/05/04 12:38:26;;;;;;;1.25;1.25;;;19.60;50.30;;;;;;6216626;23;20207;-71
2023/05/04 12:40:54;;;;;;;1.00;1.00;;;19.70;49.90;;;;;;6216484;23;20487;-71
2023/05/04 12:43:22;;;;;;;1.60;1.50;;;19.80;50.90;;;;;;6216441;23;20176;-71
2023/05/04 12:45:49;;;;;;;1.20;1.20;;;19.90;50.10;;;;;;6216375;23;20204;-71
2023/05/04 13:01:14;;;;;;;1.40;1.40;;;19.80;48.40;;;;;;6216370;22;20204;-70
2023/05/04 13:03:40;;;;;;;1.30;1.30;;;19.80;49.90;;;;;;6216186;23;20187;-70
2023/05/04 13:06:07;;;;;;;1.67;1.33;;;19.70;48.60;;;;;;6216394;23;20180;-70
2023/05/04 13:08:34;;;;;;;1.38;1.25;;;19.80;48.90;;;;;;6216706;23;20172;-70
2023/05/04 13:11:01;;;;;;;1.35;1.35;;;19.80;50.10;;;;;;6216401;23;20207;-70
2023/05/04 13:13:28;;;;;;;1.67;1.48;;;19.80;49.80;;;;;;6216361;23;20606;-70
2023/05/04 13:15:55;;;;;;;1.08;1.08;;;19.90;49.50;;;;;;6216865;23;20172;-71
2023/05/04 13:18:25;;;;;;;0.80;0.80;;;19.90;48.70;;;;;;6216460;23;20230;-71
2023/05/04 13:20:52;;;;;;;1.20;1.20;;;19.90;49.50;;;;;;6216439;23;20188;-71
2023/05/04 13:23:20;;;;;;;1.13;1.13;;;19.90;49.50;;;;;;6216124;23;20188;-71
2023/05/04 13:25:49;;;;;;;1.23;1.23;;;19.90;49.70;;;;;;6216051;23;20176;-71
2023/05/04 13:28:16;;;;;;;2.58;1.45;;;19.90;49.60;;;;;;6215711;23;20699;-71
2023/05/04 13:30:42;;;;;;;0.98;0.98;;;20.00;49.00;;;;;;6216882;23;20203;-71
2023/05/04 13:33:09;;;;;;;1.15;1.15;;;20.00;47.60;;;;;;6216628;23;20180;-71
2023/05/04 13:35:37;;;;;;;1.70;1.70;;;19.90;48.50;;;;;;6217378;23;20180;-71
2023/05/04 13:38:04;;;;;;;1.70;1.60;;;20.00;48.30;;;;;;6217501;23;20211;-71
2023/05/04 13:40:31;;;;;;;1.25;1.15;;;20.00;48.20;;;;;;6215921;23;20706;-72
2023/05/04 13:42:58;;;;;;;1.02;1.02;;;19.90;47.70;;;;;;6216592;23;20180;-72
2023/05/04 13:45:25;;;;;;;2.97;1.30;;;19.90;47.10;;;;;;6215870;23;20183;-71
2023/05/04 13:47:52;;;;;;;1.02;1.02;;;19.90;47.80;;;;;;6216026;23;20183;-71
2023/05/04 13:50:19;;;;;;;1.30;1.20;;;19.90;47.10;;;;;;6216337;23;20196;-71
2023/05/04 13:52:47;;;;;;;1.50;1.50;;;19.90;46.40;;;;;;6216275;23;20192;-71
2023/05/04 13:55:15;;;;;;;1.50;1.40;;;20.00;46.90;;;;;;6216282;23;20211;-71
2023/05/04 13:57:42;;;;;;;1.20;1.20;;;19.90;46.40;;;;;;6216259;23;20173;-71
2023/05/04 14:00:10;;;;;;;1.73;1.20;;;20.00;45.80;;;;;;6216115;23;20196;-71
2023/05/04 14:02:37;;;;;;;1.05;1.02;;;20.00;46.00;;;;;;6215610;23;20660;-71
2023/05/04 14:05:04;;;;;;;1.23;1.23;;;20.00;46.50;;;;;;6216193;23;20203;-71
2023/05/04 14:07:31;;;;;;;3.15;1.33;;;20.10;46.00;;;;;;6216192;23;20195;-71
2023/05/04 14:09:59;;;;;;;1.17;1.17;;;20.10;46.10;;;;;;6216439;23;20528;-71
2023/05/04 14:12:26;;;;;;;1.10;1.10;;;20.10;45.90;;;;;;6218638;23;20192;-71
2023/05/04 14:14:52;;;;;;;1.15;1.15;;;20.10;46.10;;;;;;6217709;23;20533;-71
2023/05/04 14:17:19;;;;;;;1.60;1.50;;;20.10;46.50;;;;;;6218092;23;20291;-71
2023/05/04 14:19:46;;;;;;;1.30;1.30;;;20.20;46.90;;;;;;6217967;23;20195;-71
2023/05/04 14:22:12;;;;;;;1.13;1.13;;;20.20;47.30;;;;;;6217925;23;20172;-71
2023/05/04 14:24:39;;;;;;;1.25;1.25;;;20.20;47.10;;;;;;6217868;23;20176;-71
2023/05/04 14:27:07;;;;;;;1.20;1.20;;;20.20;47.30;;;;;;6218226;23;20172;-71
2023/05/04 14:29:34;;;;;;;1.17;1.17;;;20.20;47.10;;;;;;6218845;23;20192;-71
2023/05/04 14:32:01;;;;;;;1.33;1.30;;;20.20;46.90;;;;;;6217832;23;20274;-71
2023/05/04 14:34:28;;;;;;;1.40;1.30;;;20.20;46.90;;;;;;6218234;23;20172;-71
2023/05/04 14:36:55;;;;;;;1.27;1.10;;;20.20;46.40;;;;;;6218084;23;20176;-71
2023/05/04 14:39:22;;;;;;;1.55;1.45;;;20.20;46.60;;;;;;6218131;23;20195;-70
2023/05/04 14:41:51;;;;;;;0.90;0.90;;;20.30;46.80;;;;;;6218139;23;20172;-71
2023/05/04 14:44:19;;;;;;;2.35;1.30;;;20.30;46.90;;;;;;6218082;23;20218;-71
2023/05/04 14:46:46;;;;;;;1.50;1.40;;;20.30;45.80;;;;;;6218074;23;20222;-70
2023/05/04 14:49:12;;;;;;;1.33;1.17;;;20.30;46.80;;;;;;6217476;23;20196;-70
2023/05/04 14:51:39;;;;;;;0.90;0.90;;;20.30;47.50;;;;;;6217362;23;20664;-71
2023/05/04 14:54:06;;;;;;;1.15;0.82;;;20.30;47.40;;;;;;6218197;23;20179;-72
2023/05/04 14:56:32;;;;;;;1.40;1.33;;;20.30;47.40;;;;;;6217350;23;20528;-72
2023/05/04 14:59:00;;;;;;;1.45;1.45;;;20.30;47.40;;;;;;6217800;23;20176;-72
2023/05/04 15:01:28;;;;;;;1.10;1.10;;;20.30;47.10;;;;;;6217541;23;20173;-72
2023/05/04 15:03:55;;;;;;;1.13;1.13;;;20.30;47.40;;;;;;6217607;23;20211;-71
2023/05/04 15:06:21;;;;;;;1.00;1.00;;;20.40;48.60;;;;;;6217625;23;20176;-71
2023/05/04 15:08:48;;;;;;;0.90;0.90;;;20.40;48.90;;;;;;6217192;23;20195;-71
2023/05/04 15:11:15;;;;;;;1.10;1.10;;;20.50;48.80;;;;;;6217240;23;20534;-72
2023/05/04 15:13:44;;;;;;;1.15;1.15;;;20.50;48.70;;;;;;6217289;23;20172;-72
2023/05/04 15:16:15;;;;;;;0.82;0.82;;;20.60;49.00;;;;;;6217370;23;20336;-72
2023/05/04 15:18:43;;;;;;;1.13;1.13;;;20.60;48.30;;;;;;6216991;23;20601;-71
2023/05/04 15:21:10;;;;;;;1.08;1.08;;;20.60;48.40;;;;;;6216653;23;20242;-71
2023/05/04 15:23:37;;;;;;;1.00;1.00;;;20.70;49.10;;;;;;6217207;23;20176;-71
2023/05/04 15:26:04;;;;;;;0.95;0.95;;;20.70;49.50;;;;;;6216906;23;20641;-72
2023/05/04 15:28:30;;;;;;;1.00;1.00;;;20.70;50.60;;;;;;6217314;23;20203;-71
2023/05/04 15:30:59;;;;;;;1.27;1.27;;;20.70;50.40;;;;;;6217111;23;20196;-71
2023/05/04 15:33:25;;;;;;;1.02;1.02;;;20.70;50.60;;;;;;6217247;23;20207;-72
2023/05/04 15:35:53;;;;;;;1.30;1.30;;;20.70;51.20;;;;;;6217366;23;20183;-71
2023/05/04 15:38:20;;;;;;;1.30;1.30;;;20.70;50.90;;;;;;6217354;23;20179;-71
2023/05/04 15:40:47;;;;;;;1.20;1.20;;;20.80;51.50;;;;;;6216967;23;20196;-72
2023/05/04 15:43:14;;;;;;;3.75;3.40;;;20.80;51.90;;;;;;6217490;23;20173;-72
2023/05/04 15:45:41;;;;;;;4.82;2.80;;;20.80;52.60;;;;;;6217560;23;20171;-72
2023/05/04 15:48:07;;;;;;;2.65;2.55;;;20.80;51.80;;;;;;6218041;23;20176;-70
2023/05/04 15:50:34;;;;;;;1.80;1.70;;;20.90;52.70;;;;;;6217257;23;20196;-70
2023/05/04 15:53:02;;;;;;;2.42;1.85;;;20.90;52.90;;;;;;6217068;23;20299;-71
2023/05/04 15:55:29;;;;;;;1.67;1.58;;;20.90;51.30;;;;;;6217066;23;20207;-72
2023/05/04 15:57:56;;;;;;;1.13;1.13;;;20.80;51.20;;;;;;6217087;23;20183;-71
2023/05/04 16:00:23;;;;;;;2.00;1.90;;;20.80;52.10;;;;;;6216989;23;20192;-71
2023/05/04 16:02:50;;;;;;;1.60;1.50;;;20.80;52.60;;;;;;6216876;23;20180;-71
2023/05/04 16:05:16;;;;;;;1.52;1.52;;;20.80;54.10;;;;;;6216525;23;20641;-71
2023/05/04 16:07:43;;;;;;;1.48;1.48;;;20.80;54.70;;;;;;6218009;23;20180;-71
2023/05/04 16:10:11;;;;;;;1.45;1.45;;;20.70;53.70;;;;;;6217025;23;20195;-71
2023/05/04 16:12:39;;;;;;;1.60;1.50;;;20.80;53.80;;;;;;6216794;23;20196;-70
2023/05/04 16:15:06;;;;;;;1.20;1.20;;;20.70;54.20;;;;;;6216970;23;20172;-71
2023/05/04 16:17:34;;;;;;;1.23;1.23;;;20.70;54.40;;;;;;6217037;23;20226;-71
2023/05/04 16:20:00;;;;;;;1.40;1.40;;;20.70;54.00;;;;;;6216979;23;20196;-71
2023/05/04 16:22:27;;;;;;;2.00;1.38;;;20.60;54.20;;;;;;6216606;23;20174;-71
2023/05/04 16:24:54;;;;;;;1.23;1.23;;;20.60;54.40;;;;;;6216763;23;20172;-71
2023/05/04 16:27:25;;;;;;;1.13;1.13;;;20.60;54.40;;;;;;6216882;23;20172;-71
2023/05/04 16:29:52;;;;;;;1.15;1.10;;;20.50;55.00;;;;;;6216870;23;20203;-71
2023/05/04 16:32:19;;;;;;;1.20;1.10;;;20.50;55.90;;;;;;6216919;23;20199;-70
2023/05/04 16:34:46;;;;;;;1.25;1.20;;;20.40;55.40;;;;;;6216948;23;20230;-71
2023/05/04 16:37:13;;;;;;;1.63;1.52;;;20.30;55.40;;;;;;6217330;23;20515;-71
2023/05/04 16:39:39;;;;;;;1.27;1.27;;;20.30;56.10;;;;;;6217297;23;20196;-71
2023/05/04 16:42:06;;;;;;;0.95;0.95;;;20.20;56.80;;;;;;6216962;23;20172;-71
2023/05/04 16:44:34;;;;;;;1.20;1.20;;;20.20;56.90;;;;;;6216971;23;20172;-71
2023/05/04 16:47:01;;;;;;;1.05;1.05;;;20.10;57.40;;;;;;6217019;23;20172;-71
2023/05/04 16:49:28;;;;;;;1.08;1.08;;;20.00;57.70;;;;;;6217359;23;20196;-71
2023/05/04 16:51:56;;;;;;;1.20;1.15;;;19.90;57.80;;;;;;6216594;23;20679;-72
2023/05/04 16:54:23;;;;;;;1.10;1.10;;;19.80;58.10;;;;;;6216641;23;20188;-72
2023/05/04 16:56:50;;;;;;;1.10;1.10;;;19.70;59.50;;;;;;6217110;23;20259;-71
2023/05/04 16:59:17;;;;;;;1.25;1.25;;;19.60;60.80;;;;;;6216677;23;20278;-72
2023/05/04 17:01:46;;;;;;;1.05;1.05;;;19.50;61.40;;;;;;6216668;23;20180;-71